createdAt,value
2018-10-11T00:00:13.299Z,29.47
2018-10-11T00:02:41.708Z,29.27
2018-10-11T00:05:10.141Z,28.40
2018-10-11T00:07:38.553Z,28.13
2018-10-11T00:10:06.923Z,27.50
2018-10-11T00:12:35.303Z,28.40
2018-10-11T00:15:03.645Z,30.80
2018-10-11T00:17:32.067Z,27.67
2018-10-11T00:20:00.550Z,33.70
2018-10-11T00:22:28.823Z,28.17
2018-10-11T00:24:57.263Z,28.40
2018-10-11T00:27:25.616Z,30.37
2018-10-11T00:29:53.983Z,29.67
2018-10-11T00:32:22.444Z,30.53
2018-10-11T00:34:50.826Z,29.67
2018-10-11T00:37:19.289Z,29.13
2018-10-11T00:39:48.561Z,30.23
2018-10-11T00:42:16.902Z,30.63
2018-10-11T00:44:45.285Z,29.40
2018-10-11T00:47:13.634Z,32.93
2018-10-11T00:49:42.774Z,31.00
2018-10-11T00:52:11.175Z,29.27
2018-10-11T00:54:40.430Z,31.57
2018-10-11T00:57:08.778Z,31.70
2018-10-11T00:59:37.261Z,33.37
2018-10-11T01:02:06.368Z,35.37
2018-10-11T01:04:35.483Z,29.70
2018-10-11T01:07:03.841Z,34.90
2018-10-11T01:09:33.191Z,32.43
2018-10-11T01:12:01.768Z,32.53
2018-10-11T01:14:30.109Z,34.93
2018-10-11T01:16:58.505Z,37.53
2018-10-11T01:19:26.874Z,36.27
2018-10-11T01:21:55.371Z,33.93
2018-10-11T01:24:23.711Z,33.87
2018-10-11T01:26:52.890Z,34.90
2018-10-11T01:29:21.248Z,32.90
2018-10-11T01:31:49.621Z,31.97
2018-10-11T01:34:17.967Z,37.40
2018-10-11T01:36:46.347Z,35.27
2018-10-11T01:39:14.742Z,34.97
2018-10-11T01:41:43.137Z,34.30
2018-10-11T01:44:11.521Z,35.30
2018-10-11T01:46:39.865Z,34.60
2018-10-11T01:49:09.117Z,36.03
2018-10-11T01:51:37.474Z,37.33
2018-10-11T01:54:05.854Z,35.03
2018-10-11T01:56:34.231Z,33.23
2018-10-11T01:59:02.631Z,33.07
2018-10-11T02:01:30.994Z,36.50
2018-10-11T02:03:59.411Z,35.50
2018-10-11T02:06:27.849Z,32.70
2018-10-11T02:08:56.191Z,36.43
2018-10-11T02:11:24.573Z,35.90
2018-10-11T02:13:52.946Z,35.83
2018-10-11T02:16:21.291Z,35.93
2018-10-11T02:18:49.675Z,40.00
2018-10-11T02:21:18.049Z,33.63
2018-10-11T02:23:46.475Z,34.70
2018-10-11T02:26:14.850Z,36.50
2018-10-11T02:28:43.380Z,40.33
2018-10-11T02:31:12.557Z,38.70
2018-10-11T02:33:40.951Z,34.37
2018-10-11T02:36:09.291Z,33.77
2018-10-11T02:38:38.424Z,37.50
2018-10-11T02:41:06.801Z,34.37
2018-10-11T02:43:35.193Z,37.37
2018-10-11T02:46:03.575Z,39.43
2018-10-11T02:48:32.124Z,35.93
2018-10-11T02:51:01.264Z,39.00
2018-10-11T02:53:29.612Z,37.87
2018-10-11T02:55:57.959Z,37.30
2018-10-11T02:58:38.121Z,36.93
2018-10-11T03:01:06.512Z,34.47
2018-10-11T03:03:34.913Z,35.17
2018-10-11T03:06:03.327Z,37.17
2018-10-11T03:08:31.737Z,36.13
2018-10-11T03:11:00.895Z,36.53
2018-10-11T03:13:29.271Z,37.77
2018-10-11T03:15:57.651Z,37.33
2018-10-11T03:18:26.020Z,33.33
2018-10-11T03:20:54.415Z,35.30
2018-10-11T03:23:22.805Z,40.43
2018-10-11T03:28:43.009Z,33.90
2018-10-11T03:31:11.444Z,34.67
2018-10-11T03:33:39.776Z,33.40
2018-10-11T03:36:08.147Z,32.77
2018-10-11T03:38:36.550Z,34.07
2018-10-11T03:41:05.681Z,34.50
2018-10-11T03:43:34.083Z,31.87
2018-10-11T03:46:02.425Z,33.37
2018-10-11T03:48:30.866Z,35.97
2018-10-11T03:50:59.265Z,34.90
2018-10-11T03:53:28.411Z,36.23
2018-10-11T03:55:56.796Z,37.23
2018-10-11T03:58:25.243Z,36.67
2018-10-11T04:00:53.678Z,35.80
2018-10-11T04:03:22.131Z,34.73
2018-10-11T04:05:50.532Z,35.87
2018-10-11T04:08:18.926Z,31.13
2018-10-11T04:10:47.390Z,36.13
2018-10-11T04:13:15.955Z,34.80
2018-10-11T04:15:44.608Z,39.47
2018-10-11T04:18:12.889Z,34.50
2018-10-11T04:20:41.235Z,36.80
2018-10-11T04:23:09.667Z,34.37
2018-10-11T04:25:38.036Z,37.73
2018-10-11T04:28:06.581Z,37.50
2018-10-11T04:30:34.929Z,37.47
2018-10-11T04:33:03.327Z,35.70
2018-10-11T04:35:32.013Z,34.83
2018-10-11T04:38:00.431Z,34.03
2018-10-11T04:40:28.822Z,40.53
2018-10-11T04:42:57.250Z,37.07
2018-10-11T04:45:25.622Z,37.33
2018-10-11T04:47:54.013Z,36.27
2018-10-11T04:50:23.167Z,40.83
2018-10-11T04:52:51.551Z,40.67
2018-10-11T04:55:19.954Z,40.23
2018-10-11T04:57:48.344Z,37.10
2018-10-11T05:00:16.693Z,39.80
2018-10-11T05:02:45.175Z,37.20
2018-10-11T05:05:13.518Z,40.27
2018-10-11T05:07:42.011Z,38.97
2018-10-11T05:10:11.168Z,36.43
2018-10-11T05:12:39.518Z,38.63
2018-10-11T05:15:07.891Z,38.60
2018-10-11T05:17:36.241Z,38.37
2018-10-11T05:20:05.383Z,37.03
2018-10-11T05:22:33.736Z,40.17
2018-10-11T05:25:02.148Z,37.30
2018-10-11T05:27:30.483Z,37.87
2018-10-11T05:29:58.891Z,38.93
2018-10-11T05:32:27.306Z,38.13
2018-10-11T05:34:55.659Z,39.77
2018-10-11T05:37:24.376Z,39.80
2018-10-11T05:39:52.866Z,40.30
2018-10-11T05:42:22.103Z,45.17
2018-10-11T05:44:50.504Z,38.70
2018-10-11T05:47:19.017Z,43.13
2018-10-11T05:49:47.441Z,44.53
2018-10-11T05:52:15.823Z,39.63
2018-10-11T05:54:44.313Z,43.73
2018-10-11T05:57:12.683Z,44.70
2018-10-11T05:59:41.073Z,37.73
2018-10-11T06:02:09.406Z,38.23
2018-10-11T06:04:37.789Z,39.67
2018-10-11T06:07:06.929Z,35.03
2018-10-11T06:09:35.397Z,37.10
2018-10-11T06:12:03.814Z,35.77
2018-10-11T06:14:32.131Z,41.03
2018-10-11T06:17:01.279Z,34.27
2018-10-11T06:19:29.629Z,55.03
2018-10-11T06:21:58.047Z,39.50
2018-10-11T06:24:26.401Z,35.43
2018-10-11T06:26:54.765Z,35.33
2018-10-11T06:29:23.173Z,35.90
2018-10-11T06:31:51.527Z,31.73
2018-10-11T06:34:19.903Z,42.53
2018-10-11T06:36:48.253Z,34.30
2018-10-11T06:39:16.667Z,33.27
2018-10-11T06:41:45.044Z,30.70
2018-10-11T06:44:14.175Z,36.37
2018-10-11T06:46:42.511Z,30.90
2018-10-11T06:49:10.925Z,33.40
2018-10-11T06:51:39.309Z,36.27
2018-10-11T06:54:07.698Z,33.47
2018-10-11T06:56:36.050Z,37.80
2018-10-11T06:59:04.455Z,33.33
2018-10-11T07:01:32.823Z,35.13
2018-10-11T07:04:01.178Z,39.93
2018-10-11T07:06:29.649Z,36.43
2018-10-11T07:08:58.031Z,33.50
2018-10-11T07:11:26.373Z,30.60
2018-10-11T07:13:54.759Z,30.57
2018-10-11T07:16:23.117Z,30.10
2018-10-11T07:18:51.450Z,32.07
2018-10-11T07:21:19.841Z,30.80
2018-10-11T07:23:48.213Z,30.30
2018-10-11T07:26:16.617Z,32.17
2018-10-11T07:28:44.963Z,31.73
2018-10-11T07:31:13.344Z,29.23
2018-10-11T07:33:41.681Z,30.87
2018-10-11T07:36:10.072Z,27.20
2018-10-11T07:38:38.481Z,30.93
2018-10-11T07:41:06.957Z,29.20
2018-10-11T07:43:35.238Z,28.13
2018-10-11T07:46:03.749Z,27.67
2018-10-11T07:48:32.100Z,31.87
2018-10-11T07:51:00.504Z,28.57
2018-10-11T07:53:28.883Z,27.47
2018-10-11T07:55:57.225Z,28.37
2018-10-11T07:58:25.637Z,31.13
2018-10-11T08:00:54.028Z,28.20
2018-10-11T08:03:22.458Z,29.37
2018-10-11T08:05:50.768Z,35.47
2018-10-11T08:08:19.163Z,32.27
2018-10-11T08:10:47.576Z,30.63
2018-10-11T08:13:16.644Z,28.60
2018-10-11T08:15:45.008Z,30.10
2018-10-11T08:18:13.384Z,30.40
2018-10-11T08:20:41.974Z,28.57
2018-10-11T08:23:10.141Z,31.50
2018-10-11T08:25:38.837Z,34.83
2018-10-11T08:28:07.606Z,28.77
2018-10-11T08:30:35.968Z,30.70
2018-10-11T08:33:05.111Z,29.17
2018-10-11T08:35:33.478Z,27.10
2018-10-11T08:38:02.021Z,28.50
2018-10-11T08:40:31.049Z,27.07
2018-10-11T08:42:59.431Z,28.63
2018-10-11T08:45:27.828Z,26.03
2018-10-11T08:47:56.152Z,24.70
2018-10-11T08:50:25.463Z,27.70
2018-10-11T08:52:53.687Z,27.77
2018-10-11T08:55:22.040Z,26.87
2018-10-11T08:57:51.178Z,25.60
2018-10-11T09:00:19.522Z,26.80
2018-10-11T09:02:47.894Z,23.50
2018-10-11T09:05:16.435Z,24.23
2018-10-11T09:07:44.780Z,21.80
2018-10-11T09:10:13.096Z,25.57
2018-10-11T09:12:41.472Z,21.57
2018-10-11T09:15:09.820Z,22.83
2018-10-11T09:17:38.301Z,20.47
2018-10-11T09:20:06.700Z,23.57
2018-10-11T09:22:35.017Z,23.97
2018-10-11T09:25:03.428Z,23.03
2018-10-11T09:27:31.771Z,20.57
2018-10-11T09:30:00.174Z,21.63
2018-10-11T09:32:28.560Z,19.40
2018-10-11T09:34:57.684Z,22.13
2018-10-11T09:37:26.083Z,22.20
2018-10-11T09:39:54.428Z,23.93
2018-10-11T09:42:22.783Z,23.07
2018-10-11T09:44:51.206Z,23.53
2018-10-11T09:47:19.584Z,21.53
2018-10-11T09:49:47.966Z,21.90
2018-10-11T09:52:16.300Z,23.43
2018-10-11T09:54:44.739Z,20.87
2018-10-11T09:57:13.084Z,23.30
2018-10-11T09:59:41.447Z,21.87
2018-10-11T10:02:09.961Z,23.73
2018-10-11T10:04:38.240Z,20.37
2018-10-11T10:07:06.598Z,20.30
2018-10-11T10:09:34.978Z,20.43
2018-10-11T10:12:03.312Z,18.97
2018-10-11T10:14:32.474Z,21.30
2018-10-11T10:17:00.816Z,24.40
2018-10-11T10:19:29.205Z,21.77
2018-10-11T10:21:57.541Z,20.95
2018-10-11T10:24:26.028Z,20.25
2018-10-11T10:26:55.221Z,19.90
2018-10-11T10:29:23.567Z,22.00
2018-10-11T10:31:51.955Z,18.30
2018-10-11T10:34:20.286Z,18.62
2018-10-11T10:36:48.660Z,18.08
2018-10-11T10:39:17.014Z,22.23
2018-10-11T10:41:46.166Z,20.00
2018-10-11T10:44:14.515Z,19.92
2018-10-11T10:46:42.896Z,22.50
2018-10-11T10:49:11.246Z,19.35
2018-10-11T10:51:40.388Z,19.33
2018-10-11T10:54:08.748Z,17.37
2018-10-11T10:56:37.136Z,18.80
2018-10-11T10:59:05.482Z,16.35
2018-10-11T11:01:34.648Z,15.93
2018-10-11T11:04:03.090Z,16.55
2018-10-11T11:06:31.494Z,12.43
2018-10-11T11:08:59.855Z,18.12
2018-10-11T11:11:28.209Z,11.65
2018-10-11T11:13:57.342Z,15.15
2018-10-11T11:16:25.672Z,12.05
2018-10-11T11:18:54.099Z,12.27
2018-10-11T11:21:23.192Z,12.37
2018-10-11T11:23:51.564Z,12.27
2018-10-11T11:26:19.922Z,12.57
2018-10-11T11:28:49.084Z,11.40
2018-10-11T11:31:17.412Z,14.60
2018-10-11T11:33:45.798Z,16.75
2018-10-11T11:36:14.180Z,11.00
2018-10-11T11:38:42.526Z,12.55
2018-10-11T11:41:11.671Z,10.85
2018-10-11T11:43:40.044Z,10.95
2018-10-11T11:46:08.398Z,10.88
2018-10-11T11:48:36.786Z,11.55
2018-10-11T11:51:05.125Z,10.95
2018-10-11T11:53:34.775Z,11.32
2018-10-11T11:56:03.160Z,11.45
2018-10-11T11:58:31.517Z,10.77
2018-10-11T12:01:00.659Z,9.60
2018-10-11T12:03:29.087Z,8.65
2018-10-11T12:05:58.202Z,9.35
2018-10-11T12:08:26.699Z,8.88
2018-10-11T12:10:55.106Z,9.18
2018-10-11T12:13:24.276Z,8.85
2018-10-11T12:15:52.590Z,9.88
2018-10-11T12:18:21.033Z,8.80
2018-10-11T12:20:49.400Z,9.38
2018-10-11T12:23:17.715Z,10.00
2018-10-11T12:25:46.053Z,8.93
2018-10-11T12:28:14.449Z,9.70
2018-10-11T12:30:43.572Z,10.52
2018-10-11T12:33:11.904Z,9.43
2018-10-11T12:35:41.167Z,8.68
2018-10-11T12:38:09.464Z,8.07
2018-10-11T12:40:38.587Z,9.27
2018-10-11T12:43:07.713Z,9.32
2018-10-11T12:45:36.649Z,8.57
2018-10-11T12:48:04.433Z,8.73
2018-10-11T12:50:33.550Z,8.35
2018-10-11T12:53:01.933Z,8.32
2018-10-11T12:55:30.415Z,8.32
2018-10-11T12:57:58.913Z,8.23
2018-10-11T13:00:27.278Z,9.38
2018-10-11T13:02:55.791Z,10.48
2018-10-11T13:05:24.136Z,9.40
2018-10-11T13:07:52.453Z,8.50
2018-10-11T13:10:20.850Z,9.38
2018-10-11T13:12:49.187Z,9.15
2018-10-11T13:15:17.689Z,10.20
2018-10-11T13:17:46.126Z,8.45
2018-10-11T13:20:14.517Z,10.30
2018-10-11T13:22:42.972Z,8.95
2018-10-11T13:25:11.323Z,9.32
2018-10-11T13:27:39.717Z,8.90
2018-10-11T13:30:08.110Z,9.18
2018-10-11T13:32:36.924Z,10.48
2018-10-11T13:35:05.334Z,9.27
2018-10-11T13:37:33.658Z,13.23
2018-10-11T13:40:02.817Z,10.40
2018-10-11T13:42:31.169Z,9.73
2018-10-11T13:44:59.640Z,9.05
2018-10-11T13:47:28.095Z,8.77
2018-10-11T13:49:56.410Z,11.55
2018-10-11T13:52:24.904Z,10.85
2018-10-11T13:54:53.304Z,10.30
2018-10-11T13:57:25.119Z,9.65
2018-10-11T13:59:50.040Z,10.90
2018-10-11T14:02:18.423Z,9.98
2018-10-11T14:04:46.820Z,10.55
2018-10-11T14:07:15.216Z,9.82
2018-10-11T14:09:44.415Z,11.45
2018-10-11T14:12:12.840Z,11.12
2018-10-11T14:14:41.418Z,9.23
2018-10-11T14:17:09.813Z,9.32
2018-10-11T14:19:38.126Z,10.80
2018-10-11T14:22:06.494Z,9.30
2018-10-11T14:24:34.945Z,10.85
2018-10-11T14:27:03.314Z,9.27
2018-10-11T14:29:31.694Z,13.82
2018-10-11T14:32:00.125Z,8.55
2018-10-11T14:34:28.574Z,9.57
2018-10-11T14:36:56.997Z,9.88
2018-10-11T14:39:26.133Z,8.20
2018-10-11T14:41:54.504Z,8.75
2018-10-11T14:44:23.618Z,7.87
2018-10-11T14:46:51.986Z,8.30
2018-10-11T14:49:20.484Z,8.95
2018-10-11T14:51:48.974Z,8.10
2018-10-11T14:54:17.450Z,8.68
2018-10-11T14:56:45.806Z,7.87
2018-10-11T14:59:14.138Z,8.30
2018-10-11T15:01:42.550Z,13.32
2018-10-11T15:04:11.172Z,11.38
2018-10-11T15:06:39.541Z,9.93
2018-10-11T15:09:07.935Z,7.95
2018-10-11T15:11:36.471Z,9.85
2018-10-11T15:14:04.645Z,8.48
2018-10-11T15:16:33.788Z,8.38
2018-10-11T15:19:02.127Z,8.60
2018-10-11T15:21:31.271Z,9.25
2018-10-11T15:23:59.676Z,8.73
2018-10-11T15:26:28.013Z,10.32
2018-10-11T15:28:56.348Z,14.63
2018-10-11T15:31:25.524Z,11.30
2018-10-11T15:33:53.968Z,9.90
2018-10-11T15:36:22.350Z,9.05
2018-10-11T15:38:50.700Z,9.02
2018-10-11T15:41:19.820Z,9.98
2018-10-11T15:43:48.291Z,9.05
2018-10-11T15:46:16.801Z,9.60
2018-10-11T15:48:45.125Z,13.00
2018-10-11T15:51:14.258Z,11.80
2018-10-11T15:53:42.724Z,11.48
2018-10-11T15:56:11.122Z,11.32
2018-10-11T15:58:39.553Z,11.63
2018-10-11T16:01:07.868Z,14.30
2018-10-11T16:03:36.241Z,10.82
2018-10-11T16:06:04.750Z,12.23
2018-10-11T16:08:33.116Z,12.45
2018-10-11T16:11:01.478Z,14.70
2018-10-11T16:13:29.887Z,12.60
2018-10-11T16:15:58.212Z,10.82
2018-10-11T16:18:26.567Z,12.10
2018-10-11T16:20:54.944Z,13.82
2018-10-11T16:23:23.319Z,12.60
2018-10-11T16:25:51.680Z,12.68
2018-10-11T16:28:20.104Z,12.10
2018-10-11T16:30:48.436Z,10.85
2018-10-11T16:33:16.816Z,11.93
2018-10-11T16:35:45.227Z,15.55
2018-10-11T16:38:13.591Z,11.45
2018-10-11T16:40:41.954Z,16.77
2018-10-11T16:43:10.326Z,17.10
2018-10-11T16:45:38.704Z,11.30
2018-10-11T16:48:07.085Z,11.93
2018-10-11T16:50:35.443Z,14.48
2018-10-11T16:53:03.872Z,11.63
2018-10-11T16:55:32.226Z,13.52
2018-10-11T16:58:00.623Z,13.65
2018-10-11T17:00:29.112Z,11.25
2018-10-11T17:02:57.494Z,12.73
2018-10-11T17:05:25.837Z,12.57
2018-10-11T17:07:54.241Z,11.23
2018-10-11T17:10:22.635Z,16.17
2018-10-11T17:12:52.858Z,19.83
2018-10-11T17:15:21.286Z,20.17
2018-10-11T17:17:49.814Z,18.95
2018-10-11T17:20:18.256Z,16.10
2018-10-11T17:22:46.684Z,15.80
2018-10-11T17:25:15.104Z,15.90
2018-10-11T17:27:43.469Z,14.57
2018-10-11T17:30:11.810Z,16.33
2018-10-11T17:32:40.188Z,13.75
2018-10-11T17:35:08.649Z,13.53
2018-10-11T17:37:36.980Z,15.52
2018-10-11T17:40:05.381Z,17.02
2018-10-11T17:42:33.894Z,15.55
2018-10-11T17:45:02.305Z,15.20
2018-10-11T17:47:31.796Z,14.87
2018-10-11T17:50:01.085Z,13.35
2018-10-11T17:52:30.264Z,15.13
2018-10-11T17:54:58.656Z,12.57
2018-10-11T17:57:27.017Z,14.85
2018-10-11T17:59:55.405Z,17.80
2018-10-11T18:02:23.773Z,15.93
2018-10-11T18:04:52.144Z,16.12
2018-10-11T18:07:21.276Z,14.73
2018-10-11T18:09:49.622Z,15.73
2018-10-11T18:12:18.784Z,14.97
2018-10-11T18:14:47.161Z,26.67
2018-10-11T18:17:15.514Z,52.97
2018-10-11T18:19:43.884Z,31.37
2018-10-11T18:22:12.242Z,21.60
2018-10-11T18:24:40.619Z,17.10
2018-10-11T18:27:08.966Z,17.23
2018-10-11T18:29:37.363Z,14.53
2018-10-11T18:32:06.473Z,14.93
2018-10-11T18:34:34.893Z,19.17
2018-10-11T18:37:03.266Z,23.85
2018-10-11T18:39:31.638Z,18.53
2018-10-11T18:41:59.993Z,15.43
2018-10-11T18:44:30.050Z,15.73
2018-10-11T18:46:58.412Z,17.47
2018-10-11T18:49:26.806Z,14.20
2018-10-11T18:51:55.227Z,17.53
2018-10-11T18:54:23.657Z,13.80
2018-10-11T18:56:52.000Z,14.80
2018-10-11T18:59:21.112Z,16.30
2018-10-11T19:01:49.474Z,15.77
2018-10-11T19:04:18.615Z,18.63
2018-10-11T19:06:47.143Z,15.10
2018-10-11T19:09:15.505Z,16.87
2018-10-11T19:11:43.869Z,33.20
2018-10-11T19:14:12.277Z,22.93
2018-10-11T19:16:40.706Z,17.80
2018-10-11T19:19:09.075Z,15.47
2018-10-11T19:21:37.420Z,20.27
2018-10-11T19:24:06.563Z,15.40
2018-10-11T19:26:34.923Z,13.40
2018-10-11T19:29:03.281Z,16.27
2018-10-11T19:31:32.403Z,13.33
2018-10-11T19:34:00.783Z,16.43
2018-10-11T19:36:29.136Z,15.43
2018-10-11T19:38:58.275Z,14.47
2018-10-11T19:41:26.635Z,16.17
2018-10-11T19:43:55.001Z,17.50
2018-10-11T19:46:24.127Z,15.50
2018-10-11T19:48:52.502Z,19.97
2018-10-11T19:51:20.920Z,21.80
2018-10-11T19:53:49.305Z,16.70
2018-10-11T19:56:17.747Z,15.27
2018-10-11T19:58:46.081Z,18.13
2018-10-11T20:01:14.520Z,15.90
2018-10-11T20:03:42.913Z,15.80
2018-10-11T20:06:11.302Z,15.67
2018-10-11T20:08:39.745Z,16.73
2018-10-11T20:11:08.002Z,16.83
2018-10-11T20:13:36.407Z,18.07
2018-10-11T20:16:04.781Z,15.80
2018-10-11T20:18:33.163Z,13.87
2018-10-11T20:21:01.588Z,14.40
2018-10-11T20:23:30.200Z,15.93
2018-10-11T20:25:58.727Z,20.20
2018-10-11T20:28:27.114Z,13.87
2018-10-11T20:30:55.523Z,32.33
2018-10-11T20:33:23.930Z,25.70
2018-10-11T20:35:53.053Z,21.60
2018-10-11T20:38:21.384Z,18.33
2018-10-11T20:40:50.534Z,19.60
2018-10-11T20:43:18.893Z,15.43
2018-10-11T20:45:47.404Z,13.57
2018-10-11T20:48:15.748Z,18.10
2018-10-11T20:50:44.169Z,15.40
2018-10-11T20:53:12.505Z,15.77
2018-10-11T20:55:40.902Z,19.83
2018-10-11T20:58:09.497Z,18.37
2018-10-11T21:00:37.856Z,14.97
2018-10-11T21:03:06.424Z,16.03
2018-10-11T21:05:35.560Z,17.33
2018-10-11T21:08:04.215Z,16.93
2018-10-11T21:10:32.632Z,19.47
2018-10-11T21:13:01.101Z,18.50
2018-10-11T21:15:30.057Z,20.03
2018-10-11T21:17:59.291Z,16.87
2018-10-11T21:20:27.769Z,20.13
2018-10-11T21:22:56.025Z,20.80
2018-10-11T21:25:24.392Z,16.57
2018-10-11T21:27:53.589Z,17.50
2018-10-11T21:30:22.151Z,17.97
2018-10-11T21:32:50.604Z,15.10
2018-10-11T21:35:18.951Z,16.73
2018-10-11T21:37:47.449Z,15.40
2018-10-11T21:40:15.947Z,16.50
2018-10-11T21:42:45.586Z,19.50
2018-10-11T21:45:14.575Z,15.43
2018-10-11T21:47:42.978Z,19.40
2018-10-11T21:50:12.189Z,18.57
2018-10-11T21:52:41.367Z,17.90
2018-10-11T21:55:09.674Z,16.53
2018-10-11T21:57:38.032Z,16.73
2018-10-11T22:00:06.418Z,17.00
2018-10-11T22:02:34.769Z,15.13
2018-10-11T22:05:03.147Z,17.30
2018-10-11T22:07:31.497Z,18.00
2018-10-11T22:09:59.897Z,16.57
2018-10-11T22:12:28.261Z,17.90
2018-10-11T22:14:56.841Z,17.83
2018-10-11T22:17:25.081Z,17.97
2018-10-11T22:19:53.483Z,19.03
2018-10-11T22:22:21.835Z,22.37
2018-10-11T22:24:50.971Z,17.63
2018-10-11T22:27:19.352Z,16.50
2018-10-11T22:29:47.729Z,20.00
2018-10-11T22:32:16.099Z,13.80
2018-10-11T22:34:44.458Z,15.87
2018-10-11T22:37:12.890Z,17.03
2018-10-11T22:39:41.216Z,18.53
2018-10-11T22:42:09.582Z,15.30
2018-10-11T22:44:37.921Z,18.30
2018-10-11T22:47:06.287Z,14.47
2018-10-11T22:49:34.642Z,14.03
2018-10-11T22:52:03.037Z,18.63
2018-10-11T22:54:31.421Z,13.70
2018-10-11T22:56:59.776Z,16.67
2018-10-11T22:59:28.146Z,14.03
2018-10-11T23:01:56.510Z,14.30
2018-10-11T23:04:24.873Z,17.30
2018-10-11T23:06:53.263Z,14.93
2018-10-11T23:09:21.610Z,13.97
2018-10-11T23:11:49.946Z,15.00
2018-10-11T23:14:18.342Z,15.13
2018-10-11T23:16:46.696Z,15.03
2018-10-11T23:19:15.105Z,13.67
2018-10-11T23:21:43.482Z,14.43
2018-10-11T23:24:11.817Z,13.70
2018-10-11T23:26:40.974Z,15.37
2018-10-11T23:29:09.310Z,15.00
2018-10-11T23:31:37.692Z,15.53
2018-10-11T23:34:06.044Z,14.47
2018-10-11T23:36:35.306Z,16.37
2018-10-11T23:39:03.642Z,13.70
2018-10-11T23:41:32.810Z,14.33
2018-10-11T23:44:01.148Z,17.40
2018-10-11T23:46:29.522Z,15.47
2018-10-11T23:48:57.869Z,18.47
2018-10-11T23:51:27.010Z,16.73
2018-10-11T23:53:55.356Z,16.40
2018-10-11T23:56:23.764Z,16.67
2018-10-11T23:58:52.122Z,15.07
